Time;durP1;ratioP1;P1;durP2;ratioP2;P2;SDS_P1;SDS_P2;PMS_P1;PMS_P2;Temp;Humidity;BMP_temperature;BMP_pressure;BME280_temperature;BME280_humidity;BME280_pressure;Samples;Min_cycle;Max_cycle;Signal;HPM_P1;HPM_P2
2024/01/05 00:01:42;;;;;;;31.73;20.40;;;5.20;99.90;;;;;;5030637;28;20041;-77
2024/01/05 00:04:09;;;;;;;37.17;21.23;;;5.30;99.90;;;;;;5027879;28;20080;-78
2024/01/05 00:06:37;;;;;;;32.33;21.27;;;5.30;99.90;;;;;;5020556;28;21119;-77
2024/01/05 00:09:06;;;;;;;24.92;18.90;;;5.30;99.90;;;;;;5025742;28;20045;-78
2024/01/05 00:11:32;;;;;;;38.92;20.95;;;5.20;99.90;;;;;;5000336;28;20134;-79
2024/01/05 00:13:59;;;;;;;33.72;20.98;;;5.30;99.90;;;;;;5018199;28;20076;-78
2024/01/05 00:16:26;;;;;;;32.08;20.67;;;5.40;99.90;;;;;;5025915;28;20633;-79
2024/01/05 00:18:53;;;;;;;27.40;20.23;;;5.50;99.90;;;;;;5026716;28;20049;-77
2024/01/05 00:21:25;;;;;;;29.77;19.42;;;5.50;99.90;;;;;;5023978;28;20041;-79
2024/01/05 00:23:54;;;;;;;25.17;18.40;;;5.40;99.90;;;;;;5019361;28;20087;-78
2024/01/05 00:26:21;;;;;;;22.65;17.95;;;5.40;99.90;;;;;;5020702;28;20040;-78
2024/01/05 00:28:50;;;;;;;28.75;16.67;;;5.40;99.90;;;;;;5014151;28;20049;-78
2024/01/05 00:31:17;;;;;;;22.13;14.95;;;5.50;99.90;;;;;;5009551;28;20041;-76
2024/01/05 00:33:45;;;;;;;24.80;14.55;;;5.30;99.90;;;;;;5014169;28;20095;-77
2024/01/05 00:36:12;;;;;;;26.38;14.48;;;5.40;99.90;;;;;;5008573;28;20033;-79
2024/01/05 00:38:46;;;;;;;29.55;14.85;;;5.40;99.90;;;;;;5014054;28;20123;-79
2024/01/05 00:41:14;;;;;;;25.55;15.80;;;5.40;99.90;;;;;;5028394;28;20034;-78
2024/01/05 00:43:41;;;;;;;23.08;15.60;;;5.40;99.90;;;;;;5019463;28;20786;-77
2024/01/05 00:46:08;;;;;;;32.15;15.52;;;5.40;99.90;;;;;;5021899;28;20100;-79
2024/01/05 00:48:35;;;;;;;28.73;16.13;;;5.40;99.90;;;;;;5029511;28;20056;-78
2024/01/05 00:51:03;;;;;;;24.85;14.85;;;5.40;99.90;;;;;;5026017;28;20411;-78
2024/01/05 00:53:29;;;;;;;26.35;15.73;;;5.40;99.90;;;;;;5014318;28;20057;-77
2024/01/05 00:55:56;;;;;;;26.70;15.82;;;5.50;99.90;;;;;;5023336;28;20879;-78
2024/01/05 00:58:23;;;;;;;22.02;14.23;;;5.40;99.90;;;;;;5035627;28;20118;-79
2024/01/05 01:00:50;;;;;;;27.75;14.52;;;5.50;99.90;;;;;;5020152;28;20051;-77
2024/01/05 01:03:17;;;;;;;24.08;14.23;;;5.60;99.90;;;;;;5026697;28;20118;-79
2024/01/05 01:05:44;;;;;;;26.20;13.93;;;5.50;99.90;;;;;;5028360;28;20045;-77
2024/01/05 01:08:12;;;;;;;25.42;14.23;;;5.40;99.90;;;;;;5028341;28;20139;-77
2024/01/05 01:10:39;;;;;;;26.40;14.88;;;5.40;99.90;;;;;;5002193;28;21161;-78
2024/01/05 01:13:06;;;;;;;27.27;15.50;;;5.40;99.90;;;;;;5018760;28;20554;-76
2024/01/05 01:15:33;;;;;;;26.95;14.20;;;5.40;99.90;;;;;;5023256;28;20121;-78
2024/01/05 01:18:00;;;;;;;20.40;13.70;;;5.40;99.90;;;;;;5027380;28;20120;-76
2024/01/05 01:20:27;;;;;;;20.85;13.35;;;5.40;99.90;;;;;;5017750;28;20144;-77
2024/01/05 01:22:54;;;;;;;24.10;14.57;;;5.30;99.90;;;;;;5023512;28;20045;-76
2024/01/05 01:25:21;;;;;;;23.00;12.75;;;5.40;99.90;;;;;;5003535;28;20057;-76
2024/01/05 01:27:48;;;;;;;18.40;12.75;;;5.40;99.90;;;;;;5021494;28;20489;-76
2024/01/05 01:30:14;;;;;;;27.45;11.68;;;5.40;99.90;;;;;;5012668;28;20045;-76
2024/01/05 01:32:42;;;;;;;24.38;11.73;;;5.40;99.90;;;;;;5013684;28;21007;-75
2024/01/05 01:35:08;;;;;;;18.20;9.50;;;5.40;99.90;;;;;;5014702;28;20528;-76
2024/01/05 01:37:35;;;;;;;28.08;12.57;;;5.40;99.90;;;;;;5021123;28;20044;-76
2024/01/05 01:40:04;;;;;;;26.02;12.40;;;5.50;99.90;;;;;;5020571;28;20048;-76
2024/01/05 01:42:32;;;;;;;26.15;11.20;;;5.50;99.90;;;;;;5017461;28;20045;-77
2024/01/05 01:45:00;;;;;;;24.50;11.95;;;5.60;99.90;;;;;;5017081;28;20095;-79
2024/01/05 01:47:28;;;;;;;11.25;9.05;;;5.60;99.90;;;;;;5017284;28;20051;-77
2024/01/05 01:49:56;;;;;;;20.65;12.32;;;5.60;99.90;;;;;;5022285;28;20627;-78
2024/01/05 01:52:24;;;;;;;19.80;11.15;;;5.60;99.90;;;;;;5017226;28;20099;-76
2024/01/05 01:54:51;;;;;;;22.45;13.32;;;5.50;99.90;;;;;;5023061;28;20514;-77
2024/01/05 01:57:18;;;;;;;17.45;11.82;;;5.60;99.90;;;;;;5019939;28;20056;-78
2024/01/05 01:59:45;;;;;;;25.65;13.13;;;5.60;99.90;;;;;;5022014;28;20042;-77
2024/01/05 02:02:13;;;;;;;22.13;12.38;;;5.60;99.90;;;;;;5000619;28;20053;-77
2024/01/05 02:04:41;;;;;;;18.25;11.85;;;5.60;99.90;;;;;;5014113;28;20287;-78
2024/01/05 02:07:08;;;;;;;22.95;11.90;;;5.70;99.90;;;;;;5037228;28;20040;-79
2024/01/05 02:09:35;;;;;;;39.20;15.65;;;5.70;99.90;;;;;;5017102;28;20082;-80
2024/01/05 02:12:02;;;;;;;42.67;15.50;;;5.70;99.90;;;;;;5016924;28;20422;-78
2024/01/05 02:14:29;;;;;;;24.13;11.60;;;5.70;99.90;;;;;;5026512;28;20179;-77
2024/01/05 02:16:56;;;;;;;16.73;10.27;;;5.60;99.90;;;;;;5030446;28;20048;-78
2024/01/05 02:19:24;;;;;;;21.00;10.93;;;5.70;99.90;;;;;;5013759;28;20043;-78
2024/01/05 02:21:56;;;;;;;15.10;9.45;;;5.70;99.90;;;;;;5011664;28;20069;-79
2024/01/05 02:24:23;;;;;;;25.25;11.60;;;5.70;99.90;;;;;;5004471;28;20045;-77
2024/01/05 02:26:50;;;;;;;31.40;12.50;;;5.70;99.90;;;;;;5023680;28;20052;-77
2024/01/05 02:29:21;;;;;;;18.73;10.68;;;5.70;99.90;;;;;;5003689;28;20044;-77
2024/01/05 02:31:49;;;;;;;18.75;11.30;;;5.70;99.90;;;;;;5015727;28;20168;-78
2024/01/05 02:34:16;;;;;;;22.27;10.52;;;5.80;99.90;;;;;;5003596;28;20045;-76
2024/01/05 02:36:43;;;;;;;32.17;12.80;;;5.70;99.90;;;;;;5007918;28;20076;-77
2024/01/05 02:39:12;;;;;;;20.33;11.32;;;5.70;99.90;;;;;;5021814;28;20623;-78
2024/01/05 02:41:39;;;;;;;21.17;11.95;;;5.70;99.90;;;;;;5040953;28;20437;-78
2024/01/05 02:44:05;;;;;;;21.98;12.48;;;5.70;99.90;;;;;;5022995;28;20048;-76
2024/01/05 02:46:33;;;;;;;24.23;13.50;;;5.70;99.90;;;;;;5023368;28;20044;-76
2024/01/05 02:49:00;;;;;;;32.08;13.73;;;5.70;99.90;;;;;;5020231;28;20140;-77
2024/01/05 02:51:27;;;;;;;30.30;14.82;;;5.80;99.90;;;;;;5012528;28;20049;-75
2024/01/05 02:53:54;;;;;;;21.73;13.45;;;5.80;99.90;;;;;;5021272;28;20506;-77
2024/01/05 02:56:22;;;;;;;28.50;14.45;;;5.80;99.90;;;;;;5030612;28;20048;-77
2024/01/05 02:58:54;;;;;;;31.48;15.38;;;5.90;99.90;;;;;;5016554;28;20497;-77
2024/01/05 03:01:20;;;;;;;28.92;14.90;;;5.80;99.90;;;;;;5020016;28;20730;-77
2024/01/05 03:03:48;;;;;;;27.05;14.43;;;5.80;99.90;;;;;;5039601;28;20057;-77
2024/01/05 03:06:18;;;;;;;38.60;17.00;;;5.80;99.90;;;;;;5017622;28;20042;-77
2024/01/05 03:08:46;;;;;;;27.05;17.00;;;5.90;99.90;;;;;;5019415;28;20265;-77
2024/01/05 03:11:12;;;;;;;34.28;16.42;;;5.90;99.90;;;;;;5017220;28;20052;-77
2024/01/05 03:13:39;;;;;;;29.60;15.95;;;5.90;99.90;;;;;;5025282;28;20029;-77
2024/01/05 03:16:06;;;;;;;32.85;16.98;;;5.90;99.90;;;;;;5023258;28;20095;-77
2024/01/05 03:18:34;;;;;;;33.60;16.17;;;5.90;99.90;;;;;;5020368;28;20064;-77
2024/01/05 03:21:01;;;;;;;35.20;17.05;;;6.00;99.90;;;;;;5012822;28;20164;-77
2024/01/05 03:23:28;;;;;;;35.05;16.30;;;6.00;99.90;;;;;;5007081;28;20631;-75
2024/01/05 03:25:56;;;;;;;44.78;18.83;;;6.00;99.90;;;;;;5023701;28;20068;-77
2024/01/05 03:28:24;;;;;;;35.58;19.15;;;6.10;99.90;;;;;;5024492;28;20060;-76
2024/01/05 03:30:51;;;;;;;34.83;18.85;;;6.20;99.90;;;;;;5020591;28;20044;-77
2024/01/05 03:33:21;;;;;;;32.10;17.48;;;6.20;99.90;;;;;;5088078;28;20045;-75
2024/01/05 03:35:48;;;;;;;41.30;19.30;;;6.20;99.90;;;;;;5060273;28;20045;-76
2024/01/05 03:38:15;;;;;;;33.15;19.17;;;6.20;99.90;;;;;;5050510;28;20592;-77
2024/01/05 03:40:42;;;;;;;39.03;18.60;;;6.10;99.90;;;;;;5025610;28;20045;-76
2024/01/05 03:43:09;;;;;;;40.60;19.42;;;6.20;99.90;;;;;;5026285;28;20033;-76
2024/01/05 03:45:36;;;;;;;39.05;19.35;;;6.20;99.90;;;;;;5015491;28;20049;-75
2024/01/05 03:48:04;;;;;;;43.35;20.42;;;6.20;99.90;;;;;;5009716;28;20079;-78
2024/01/05 03:50:30;;;;;;;43.90;20.95;;;6.20;99.90;;;;;;5026084;28;20045;-75
2024/01/05 03:52:57;;;;;;;38.95;19.92;;;6.30;99.90;;;;;;5008925;28;20257;-77
2024/01/05 03:55:24;;;;;;;45.92;21.25;;;6.30;99.90;;;;;;5006272;28;20068;-77
2024/01/05 03:57:50;;;;;;;41.50;21.13;;;6.30;99.90;;;;;;5048263;28;20045;-77
2024/01/05 04:00:18;;;;;;;44.72;21.67;;;6.30;99.90;;;;;;5032993;28;20443;-76
2024/01/05 04:02:44;;;;;;;42.83;21.00;;;6.40;99.90;;;;;;5022715;28;20049;-78
2024/01/05 04:05:12;;;;;;;47.55;20.23;;;6.30;99.90;;;;;;5017128;28;20076;-78
2024/01/05 04:07:38;;;;;;;39.88;20.70;;;6.30;99.90;;;;;;5012865;28;20812;-77
2024/01/05 04:10:06;;;;;;;56.20;21.50;;;6.30;99.90;;;;;;5004450;28;20041;-78
2024/01/05 04:12:33;;;;;;;56.70;22.73;;;6.30;99.90;;;;;;5010761;28;20053;-79
2024/01/05 04:15:00;;;;;;;44.80;21.63;;;6.40;99.90;;;;;;5027032;28;20044;-77
2024/01/05 04:17:27;;;;;;;48.60;21.05;;;6.40;99.90;;;;;;5014189;28;20045;-77
2024/01/05 04:19:53;;;;;;;55.33;23.38;;;6.40;99.90;;;;;;5022124;28;20048;-78
2024/01/05 04:22:20;;;;;;;49.78;22.20;;;6.40;99.90;;;;;;5016511;28;20069;-77
2024/01/05 04:24:47;;;;;;;38.75;19.92;;;6.50;99.90;;;;;;5013953;28;20033;-77
2024/01/05 04:27:14;;;;;;;52.38;22.42;;;6.50;99.90;;;;;;5031859;28;20037;-79
2024/01/05 04:29:41;;;;;;;49.25;22.48;;;6.50;99.90;;;;;;5020401;28;20111;-77
2024/01/05 04:32:07;;;;;;;58.95;24.13;;;6.50;99.90;;;;;;5009159;28;20046;-78
2024/01/05 04:34:34;;;;;;;46.88;24.42;;;6.50;99.90;;;;;;5025998;28;20061;-77
2024/01/05 04:37:01;;;;;;;44.83;23.15;;;6.50;99.90;;;;;;5016559;28;20041;-77
2024/01/05 04:39:28;;;;;;;53.97;23.75;;;6.50;99.90;;;;;;5020844;28;20073;-77
2024/01/05 04:41:55;;;;;;;45.08;23.50;;;6.60;99.90;;;;;;4993137;28;20306;-77
2024/01/05 04:44:21;;;;;;;51.80;23.88;;;6.60;99.90;;;;;;5022569;28;20096;-77
2024/01/05 04:46:48;;;;;;;47.33;24.45;;;6.60;99.90;;;;;;5025841;28;20040;-78
2024/01/05 04:49:15;;;;;;;67.28;24.38;;;6.60;99.90;;;;;;5028282;28;20033;-77
2024/01/05 04:51:42;;;;;;;43.58;23.85;;;6.60;99.90;;;;;;5024076;28;20052;-77
2024/01/05 04:54:10;;;;;;;55.20;24.65;;;6.60;99.90;;;;;;5049517;28;20044;-77
2024/01/05 04:56:37;;;;;;;49.60;25.42;;;6.60;99.90;;;;;;5016971;28;20482;-78
2024/01/05 04:59:04;;;;;;;54.90;23.95;;;6.60;99.90;;;;;;5022863;28;20049;-77
2024/01/05 05:01:31;;;;;;;59.10;25.63;;;6.60;99.90;;;;;;5029453;28;20041;-78
2024/01/05 05:03:57;;;;;;;44.92;22.08;;;6.60;99.90;;;;;;4988987;28;20041;-76
2024/01/05 05:06:24;;;;;;;60.63;25.17;;;6.60;99.90;;;;;;5022680;28;20061;-77
2024/01/05 05:08:51;;;;;;;52.97;23.60;;;6.60;99.90;;;;;;5012002;28;20135;-77
2024/01/05 05:11:18;;;;;;;61.55;23.58;;;6.60;99.90;;;;;;5020076;28;20035;-76
2024/01/05 05:13:45;;;;;;;59.35;23.50;;;6.70;99.90;;;;;;5010748;28;20116;-77
2024/01/05 05:16:11;;;;;;;53.03;25.10;;;6.70;99.90;;;;;;5030295;28;20123;-77
2024/01/05 05:18:38;;;;;;;52.15;25.30;;;6.60;99.90;;;;;;5028783;28;20057;-76
2024/01/05 05:21:05;;;;;;;50.78;24.83;;;6.70;99.90;;;;;;5001202;28;20052;-76
2024/01/05 05:23:32;;;;;;;48.25;25.13;;;6.70;99.90;;;;;;5020389;28;20435;-78
2024/01/05 05:26:00;;;;;;;59.05;25.75;;;6.70;99.90;;;;;;5027350;28;20187;-77
2024/01/05 05:28:26;;;;;;;53.05;25.95;;;6.80;99.90;;;;;;5043790;28;20642;-76
2024/01/05 05:30:53;;;;;;;44.88;23.38;;;6.80;99.90;;;;;;5005452;28;20037;-78
2024/01/05 05:33:20;;;;;;;56.50;24.77;;;6.80;99.90;;;;;;5024887;28;20790;-78
2024/01/05 05:35:48;;;;;;;51.95;23.75;;;6.80;99.90;;;;;;4994314;28;20252;-77
2024/01/05 05:38:15;;;;;;;48.13;21.88;;;6.80;99.90;;;;;;4994703;28;20045;-76
2024/01/05 05:40:41;;;;;;;54.60;23.70;;;6.70;99.90;;;;;;5000881;28;20050;-76
2024/01/05 05:43:08;;;;;;;49.47;23.65;;;6.80;99.90;;;;;;5028110;28;20136;-77
2024/01/05 05:45:35;;;;;;;44.83;21.98;;;6.80;99.90;;;;;;5029910;28;20052;-78
2024/01/05 05:48:02;;;;;;;57.83;24.63;;;6.80;99.90;;;;;;5035710;28;20076;-77
2024/01/05 05:50:29;;;;;;;52.53;23.92;;;6.80;99.90;;;;;;5008749;28;20072;-77
2024/01/05 05:52:56;;;;;;;41.55;21.15;;;6.80;99.90;;;;;;4998696;28;20060;-76
2024/01/05 05:55:23;;;;;;;43.40;24.00;;;6.80;99.90;;;;;;5019080;28;20103;-77
2024/01/05 05:57:50;;;;;;;46.90;22.30;;;6.90;99.90;;;;;;5027222;28;20070;-77
2024/01/05 06:00:17;;;;;;;41.13;22.20;;;6.80;99.90;;;;;;5028362;28;20547;-76
2024/01/05 06:02:44;;;;;;;50.85;23.55;;;6.80;99.90;;;;;;5021747;28;20056;-76
2024/01/05 06:05:10;;;;;;;48.28;21.48;;;6.90;99.90;;;;;;5011849;28;20728;-77
2024/01/05 06:07:37;;;;;;;40.95;22.30;;;6.90;99.90;;;;;;5037520;28;20045;-77
2024/01/05 06:10:05;;;;;;;43.70;22.48;;;6.90;99.90;;;;;;5039331;28;20048;-78
2024/01/05 06:12:31;;;;;;;44.80;23.55;;;6.90;99.90;;;;;;5024301;28;20045;-77
2024/01/05 06:14:59;;;;;;;45.17;21.95;;;6.90;99.90;;;;;;5010285;28;20059;-79
2024/01/05 06:17:26;;;;;;;40.83;20.83;;;6.90;99.90;;;;;;5016954;28;20629;-78
2024/01/05 06:19:53;;;;;;;42.03;21.67;;;6.90;99.90;;;;;;5024356;28;20140;-77
2024/01/05 06:22:19;;;;;;;42.97;20.58;;;6.90;99.90;;;;;;5028811;28;20037;-77
2024/01/05 06:24:46;;;;;;;33.55;19.00;;;6.80;99.90;;;;;;5018149;28;20045;-77
2024/01/05 06:27:13;;;;;;;33.20;18.27;;;6.90;99.90;;;;;;5029196;28;20120;-77
2024/01/05 06:29:50;;;;;;;32.80;15.57;;;6.80;99.90;;;;;;5035926;28;20098;-78
2024/01/05 06:32:17;;;;;;;33.72;17.25;;;6.80;99.90;;;;;;5034822;28;20041;-77
2024/01/05 06:34:44;;;;;;;34.35;15.60;;;6.90;99.90;;;;;;5019501;28;20594;-76
2024/01/05 06:37:11;;;;;;;30.98;16.27;;;6.90;99.90;;;;;;5028855;28;20049;-76
2024/01/05 06:39:38;;;;;;;31.40;16.98;;;6.90;99.90;;;;;;5038448;28;20092;-76
2024/01/05 06:42:04;;;;;;;32.05;15.90;;;6.90;99.90;;;;;;5026923;28;20041;-78
2024/01/05 06:44:34;;;;;;;30.63;16.23;;;6.90;99.90;;;;;;5026706;28;20601;-77
2024/01/05 06:47:01;;;;;;;34.38;15.25;;;6.90;99.90;;;;;;5033989;28;20044;-77
2024/01/05 06:49:28;;;;;;;33.20;16.23;;;6.90;99.90;;;;;;5043563;28;20047;-78
2024/01/05 06:51:55;;;;;;;23.85;14.98;;;6.90;99.90;;;;;;5038140;28;20067;-77
2024/01/05 06:54:22;;;;;;;30.77;14.35;;;6.90;99.90;;;;;;5028275;28;20136;-76
2024/01/05 06:56:49;;;;;;;29.48;13.82;;;6.90;99.90;;;;;;4998723;28;20142;-78
2024/01/05 06:59:16;;;;;;;29.00;15.40;;;7.00;99.90;;;;;;5028860;28;20733;-77
2024/01/05 07:01:42;;;;;;;17.77;12.93;;;7.10;99.90;;;;;;5035155;28;20098;-75
2024/01/05 07:04:10;;;;;;;29.75;13.43;;;7.00;99.90;;;;;;4995191;28;20057;-77
2024/01/05 07:06:40;;;;;;;35.60;15.40;;;7.10;99.90;;;;;;5004146;28;20071;-75
2024/01/05 07:09:07;;;;;;;30.92;14.32;;;7.10;99.90;;;;;;5053048;28;20056;-75
2024/01/05 07:11:34;;;;;;;23.15;13.05;;;7.10;99.90;;;;;;5044328;28;20036;-75
2024/01/05 07:14:01;;;;;;;28.83;14.00;;;7.10;99.90;;;;;;5019159;28;20427;-76
2024/01/05 07:16:28;;;;;;;26.55;13.93;;;7.10;99.90;;;;;;5029156;28;20963;-78
2024/01/05 07:18:55;;;;;;;21.13;12.57;;;7.10;99.90;;;;;;5022450;28;20041;-76
2024/01/05 07:21:22;;;;;;;29.60;14.27;;;7.00;99.90;;;;;;5037840;28;20494;-77
2024/01/05 07:23:48;;;;;;;22.38;14.50;;;7.10;99.90;;;;;;4992956;28;20129;-76
2024/01/05 07:26:22;;;;;;;26.52;14.68;;;7.10;99.90;;;;;;5032394;28;20044;-77
2024/01/05 07:28:49;;;;;;;26.17;14.30;;;7.10;99.90;;;;;;5017712;28;20052;-77
2024/01/05 07:31:22;;;;;;;25.92;15.57;;;7.00;99.90;;;;;;5033177;28;20647;-76
2024/01/05 07:33:49;;;;;;;27.92;13.65;;;7.00;99.90;;;;;;5019985;28;20051;-75
2024/01/05 07:36:15;;;;;;;25.38;14.02;;;7.00;99.90;;;;;;5028687;28;20044;-76
2024/01/05 07:38:42;;;;;;;25.80;13.70;;;7.00;99.90;;;;;;5015612;28;20633;-76
2024/01/05 07:41:16;;;;;;;21.88;13.80;;;7.10;99.90;;;;;;5011985;28;20041;-75
2024/01/05 07:43:43;;;;;;;23.10;14.20;;;7.10;99.90;;;;;;5021431;28;20130;-76
2024/01/05 07:46:10;;;;;;;21.98;13.48;;;7.10;99.90;;;;;;5027074;28;20044;-76
2024/01/05 07:48:40;;;;;;;27.63;14.70;;;7.10;99.90;;;;;;5026744;28;20040;-75
2024/01/05 07:51:08;;;;;;;25.40;14.45;;;7.10;99.90;;;;;;5030261;28;20057;-76
2024/01/05 07:53:35;;;;;;;24.55;14.73;;;7.10;99.90;;;;;;5009452;28;20334;-76
2024/01/05 07:56:03;;;;;;;24.70;15.43;;;7.20;99.90;;;;;;5023391;28;20057;-75
2024/01/05 07:58:29;;;;;;;27.95;15.75;;;7.20;99.90;;;;;;5029048;28;20041;-74
2024/01/05 08:00:56;;;;;;;17.88;12.77;;;7.10;99.90;;;;;;5021689;28;20052;-75
2024/01/05 08:03:24;;;;;;;23.25;13.32;;;7.00;99.90;;;;;;5034626;28;20049;-75
2024/01/05 08:05:51;;;;;;;19.65;13.57;;;7.00;99.90;;;;;;5023374;28;20057;-74
2024/01/05 08:08:18;;;;;;;24.38;13.48;;;7.00;99.90;;;;;;5046550;28;20051;-77
2024/01/05 08:10:44;;;;;;;17.15;12.73;;;7.00;99.90;;;;;;5029730;28;20037;-74
2024/01/05 08:13:12;;;;;;;22.33;13.18;;;7.00;99.90;;;;;;5028982;28;20045;-73
2024/01/05 08:15:38;;;;;;;29.25;16.77;;;7.00;99.90;;;;;;5024043;28;20037;-73
2024/01/05 08:18:05;;;;;;;23.50;16.08;;;7.00;99.90;;;;;;5034534;28;20033;-74
2024/01/05 08:20:32;;;;;;;27.65;18.13;;;7.00;99.90;;;;;;5037107;28;20124;-74
2024/01/05 08:23:01;;;;;;;23.23;17.27;;;7.00;99.90;;;;;;5023424;28;20103;-74
2024/01/05 08:25:28;;;;;;;24.80;18.00;;;7.10;99.90;;;;;;5024985;28;20106;-73
2024/01/05 08:27:54;;;;;;;17.55;13.30;;;7.10;99.90;;;;;;5027328;28;20625;-74
2024/01/05 08:30:21;;;;;;;27.98;13.35;;;7.00;99.90;;;;;;5024083;28;20061;-73
2024/01/05 08:32:54;;;;;;;28.35;12.95;;;7.00;99.90;;;;;;5028211;28;20052;-74
2024/01/05 08:35:21;;;;;;;20.25;11.75;;;7.00;99.90;;;;;;5027008;28;20045;-74
2024/01/05 08:37:48;;;;;;;20.83;12.85;;;7.00;99.90;;;;;;5014929;28;20107;-74
2024/01/05 08:40:16;;;;;;;22.63;14.35;;;7.00;99.90;;;;;;5031558;28;20076;-75
2024/01/05 08:42:43;;;;;;;24.65;12.85;;;7.00;99.90;;;;;;5021957;28;20069;-75
2024/01/05 08:45:10;;;;;;;23.33;14.02;;;7.00;99.90;;;;;;5024387;28;20049;-75
2024/01/05 08:47:37;;;;;;;21.65;12.63;;;7.00;99.90;;;;;;5033312;28;20161;-75
2024/01/05 08:50:06;;;;;;;26.20;13.43;;;7.00;99.90;;;;;;5028426;28;20048;-75
2024/01/05 08:52:33;;;;;;;21.52;14.15;;;7.00;99.90;;;;;;5024492;28;20045;-75
2024/01/05 08:55:00;;;;;;;26.38;14.43;;;7.00;99.90;;;;;;5024132;28;20064;-74
2024/01/05 08:57:27;;;;;;;21.00;13.48;;;7.00;99.90;;;;;;5030225;28;20041;-75
2024/01/05 08:59:54;;;;;;;23.48;17.67;;;7.00;99.90;;;;;;4998183;28;20048;-74
2024/01/05 09:02:22;;;;;;;24.17;16.67;;;6.90;99.90;;;;;;5017885;28;20384;-73
2024/01/05 09:04:49;;;;;;;17.15;14.82;;;7.00;99.90;;;;;;5010646;28;20123;-75
2024/01/05 09:07:16;;;;;;;17.33;15.55;;;7.00;99.90;;;;;;5028297;28;20048;-75
2024/01/05 09:09:42;;;;;;;26.70;15.93;;;7.00;99.90;;;;;;5024322;28;20049;-75
2024/01/05 09:12:09;;;;;;;26.38;16.17;;;7.00;99.90;;;;;;5027786;28;20077;-75
2024/01/05 09:14:37;;;;;;;25.92;16.83;;;7.00;99.90;;;;;;5032662;28;20454;-75
2024/01/05 09:17:04;;;;;;;21.48;15.43;;;7.10;99.90;;;;;;5030474;28;20041;-75
2024/01/05 09:19:32;;;;;;;25.90;16.70;;;7.00;99.90;;;;;;5027614;28;20049;-74
2024/01/05 09:21:59;;;;;;;17.25;14.82;;;7.10;99.90;;;;;;5030942;28;20491;-74
2024/01/05 09:24:28;;;;;;;36.97;16.30;;;7.10;99.90;;;;;;5025312;28;20051;-75
2024/01/05 09:26:55;;;;;;;15.73;12.15;;;7.20;99.90;;;;;;5006456;28;20344;-74
2024/01/05 09:29:22;;;;;;;16.13;13.52;;;7.20;99.90;;;;;;5033897;28;20060;-72
2024/01/05 09:31:51;;;;;;;22.48;14.30;;;7.20;99.90;;;;;;5021524;28;20132;-74
2024/01/05 09:34:17;;;;;;;23.00;13.88;;;7.20;99.90;;;;;;5026601;28;20500;-74
2024/01/05 09:36:44;;;;;;;18.77;14.30;;;7.20;99.90;;;;;;5025738;28;21785;-74
2024/01/05 09:39:12;;;;;;;22.85;18.05;;;7.30;99.90;;;;;;5025436;28;20061;-75
2024/01/05 09:41:41;;;;;;;15.73;14.05;;;7.20;99.90;;;;;;5018585;28;20055;-78
2024/01/05 09:44:11;;;;;;;19.73;16.23;;;7.30;99.90;;;;;;5027350;28;20041;-76
2024/01/05 09:46:39;;;;;;;22.38;14.80;;;7.30;99.90;;;;;;5028589;28;20047;-77
2024/01/05 09:49:07;;;;;;;16.55;15.02;;;7.30;99.90;;;;;;5024129;28;20038;-76
2024/01/05 09:51:35;;;;;;;17.35;15.65;;;7.30;99.90;;;;;;5031115;28;20072;-77
2024/01/05 09:54:02;;;;;;;18.00;16.13;;;7.30;99.90;;;;;;5012645;28;20048;-77
2024/01/05 09:56:29;;;;;;;18.23;16.27;;;7.40;99.90;;;;;;5028646;28;20049;-76
2024/01/05 09:58:56;;;;;;;20.00;17.00;;;7.40;99.90;;;;;;5037638;28;20077;-77
2024/01/05 10:01:28;;;;;;;17.92;16.10;;;7.50;99.90;;;;;;5037726;28;20048;-78
2024/01/05 10:03:57;;;;;;;22.58;20.73;;;7.50;99.90;;;;;;5043435;28;20445;-77
2024/01/05 10:06:25;;;;;;;22.40;18.75;;;7.50;99.90;;;;;;5029735;28;20047;-78
2024/01/05 10:08:54;;;;;;;25.05;22.73;;;7.50;99.90;;;;;;5022211;28;20376;-77
2024/01/05 10:11:35;;;;;;;26.15;23.55;;;7.50;99.90;;;;;;5013666;28;20047;-75
2024/01/05 10:14:06;;;;;;;26.73;24.48;;;7.70;99.90;;;;;;5024649;28;20049;-77
2024/01/05 10:16:37;;;;;;;25.40;23.73;;;7.90;99.90;;;;;;5008498;28;20140;-77
2024/01/05 10:19:16;;;;;;;32.60;30.23;;;8.20;99.90;;;;;;5027246;28;20037;-77
2024/01/05 10:21:44;;;;;;;29.95;27.60;;;8.30;99.90;;;;;;5032950;28;20752;-77
2024/01/05 10:24:31;;;;;;;33.75;31.38;;;8.50;99.90;;;;;;4991869;28;20048;-76
2024/01/05 10:27:27;;;;;;;38.35;35.78;;;8.60;99.90;;;;;;5008808;28;20128;-77
2024/01/05 10:29:56;;;;;;;38.50;35.60;;;8.50;99.90;;;;;;5015221;28;20053;-76
2024/01/05 10:32:25;;;;;;;34.70;32.28;;;8.50;99.90;;;;;;5016386;28;20052;-77
2024/01/05 10:34:52;;;;;;;29.92;28.23;;;8.40;99.90;;;;;;5003631;28;20140;-79
2024/01/05 10:37:21;;;;;;;28.85;26.55;;;8.30;99.90;;;;;;5026851;28;20084;-76
2024/01/05 10:39:54;;;;;;;29.40;26.63;;;8.30;99.90;;;;;;5014663;28;20136;-79
2024/01/05 10:42:26;;;;;;;29.95;27.88;;;8.20;99.90;;;;;;5027669;28;20045;-77
2024/01/05 10:44:56;;;;;;;27.33;25.60;;;8.20;99.90;;;;;;5049354;28;20033;-78
2024/01/05 10:47:31;;;;;;;29.30;27.20;;;8.10;99.90;;;;;;5044269;28;20229;-78
2024/01/05 10:49:58;;;;;;;27.85;25.95;;;8.10;99.90;;;;;;5027701;28;20045;-77
2024/01/05 10:52:32;;;;;;;29.38;27.25;;;8.10;99.90;;;;;;5029498;28;20055;-78
2024/01/05 10:55:03;;;;;;;29.25;27.17;;;8.00;99.90;;;;;;5003726;28;20049;-77
2024/01/05 10:57:37;;;;;;;26.67;24.30;;;8.00;99.90;;;;;;5035482;28;20057;-79
2024/01/05 11:00:05;;;;;;;24.77;22.75;;;8.00;99.90;;;;;;5036746;28;20060;-80
2024/01/05 11:02:46;;;;;;;23.70;21.98;;;8.10;99.90;;;;;;5033186;28;20640;-80
2024/01/05 11:05:13;;;;;;;23.73;21.75;;;7.90;99.90;;;;;;5016138;28;20045;-81
2024/01/05 11:07:42;;;;;;;22.90;21.10;;;7.90;99.90;;;;;;5021626;28;20045;-81
2024/01/05 11:10:31;;;;;;;23.63;21.67;;;7.90;99.90;;;;;;5032463;28;20071;-80
2024/01/05 11:13:45;;;;;;;24.02;21.77;;;7.90;99.90;;;;;;4997290;28;20089;-80
2024/01/05 11:16:58;;;;;;;23.30;21.55;;;7.90;99.90;;;;;;4936836;28;20094;-80
2024/01/05 11:19:36;;;;;;;23.35;21.35;;;7.80;99.90;;;;;;5011659;28;20060;-80
2024/01/05 11:22:08;;;;;;;21.30;19.52;;;7.80;99.90;;;;;;5022467;28;20141;-80
2024/01/05 11:24:36;;;;;;;23.77;21.67;;;7.80;99.90;;;;;;5028486;28;20048;-79
2024/01/05 11:27:27;;;;;;;24.30;22.20;;;7.70;99.90;;;;;;5007009;28;20539;-79
2024/01/05 11:29:56;;;;;;;21.92;20.45;;;7.70;99.90;;;;;;5037644;28;20131;-80
2024/01/05 11:32:39;;;;;;;22.27;20.38;;;7.70;99.90;;;;;;5035228;28;21142;-79
2024/01/05 11:35:39;;;;;;;21.27;19.75;;;7.70;99.90;;;;;;5001110;28;20068;-80
2024/01/05 11:38:23;;;;;;;25.05;22.88;;;7.70;99.90;;;;;;5020685;28;20049;-80
2024/01/05 11:40:50;;;;;;;21.73;19.93;;;7.70;99.90;;;;;;5029379;28;20056;-80
2024/01/05 11:43:36;;;;;;;23.77;21.63;;;7.70;99.90;;;;;;5014917;28;20291;-80
2024/01/05 11:46:03;;;;;;;24.05;22.02;;;7.70;99.90;;;;;;5037266;28;20516;-80
2024/01/05 11:48:33;;;;;;;25.33;23.52;;;7.80;99.90;;;;;;5039541;28;20048;-80
2024/01/05 11:51:14;;;;;;;24.98;23.25;;;7.80;99.90;;;;;;5037643;28;20045;-82
2024/01/05 11:53:44;;;;;;;24.30;21.98;;;7.80;99.90;;;;;;5025377;28;20096;-81
2024/01/05 11:56:11;;;;;;;25.85;24.20;;;7.70;99.90;;;;;;5030802;28;20034;-82
2024/01/05 11:58:43;;;;;;;26.17;24.20;;;7.80;99.90;;;;;;5032291;28;20713;-81
2024/01/05 12:01:12;;;;;;;27.75;25.92;;;7.80;99.90;;;;;;5031677;28;20069;-82
2024/01/05 12:03:40;;;;;;;29.25;26.75;;;7.80;99.90;;;;;;5016052;28;20048;-81
2024/01/05 12:06:11;;;;;;;24.27;22.38;;;7.80;99.90;;;;;;5033434;28;20053;-82
2024/01/05 12:08:40;;;;;;;24.35;21.98;;;8.00;99.90;;;;;;5021409;28;20187;-82
2024/01/05 12:11:10;;;;;;;25.67;23.38;;;8.10;99.90;;;;;;5026652;28;20048;-82
2024/01/05 12:13:38;;;;;;;24.15;21.95;;;8.30;99.90;;;;;;5030343;28;20557;-81
2024/01/05 12:16:08;;;;;;;27.52;25.38;;;8.50;99.90;;;;;;5026098;28;20579;-82
2024/01/05 12:18:44;;;;;;;30.73;28.13;;;8.60;99.90;;;;;;5020748;28;20071;-81
2024/01/05 12:21:16;;;;;;;34.65;32.40;;;8.50;99.90;;;;;;5013804;28;20128;-81
2024/01/05 12:23:53;;;;;;;32.58;30.35;;;8.50;99.90;;;;;;5012659;28;20142;-81
2024/01/05 12:26:21;;;;;;;32.63;30.40;;;8.40;99.90;;;;;;4998875;28;20426;-81
2024/01/05 12:28:49;;;;;;;32.63;30.45;;;8.40;99.90;;;;;;5051394;28;20044;-80
2024/01/05 12:31:17;;;;;;;30.70;28.88;;;8.30;99.90;;;;;;5043058;28;20115;-80
2024/01/05 12:33:45;;;;;;;32.38;29.67;;;8.30;99.90;;;;;;5043743;28;20171;-80
2024/01/05 12:36:27;;;;;;;29.73;27.35;;;8.30;99.90;;;;;;5013632;28;20048;-81
2024/01/05 12:39:10;;;;;;;28.83;26.48;;;8.20;99.90;;;;;;5027720;28;20527;-80
2024/01/05 12:41:41;;;;;;;30.13;28.35;;;8.10;99.90;;;;;;5028192;28;20045;-80
2024/01/05 12:44:10;;;;;;;30.02;28.17;;;7.90;99.90;;;;;;5018762;28;20045;-79
2024/01/05 12:46:46;;;;;;;25.67;24.33;;;7.70;99.90;;;;;;5022708;28;20051;-79